Data for 09/12/2007

Time Sea-Level Adjusted Pressure Absolute Pressure Temperature Relative Humidity Dew Point   
(mb) (inHg) (mb) (inHg) (C) (F) (%) (C) (F)
00:05 1018 30.06 847 25.01 15.6 60.1 29 -2.4 27.8
00:10 1018 30.06 847 25.01 15.1 59.2 32 -1.5 29.2
00:15 1018 30.06 847 25.01 14.3 57.7 33 -1.8 28.7
00:20 1018 30.06 847 25.01 14.1 57.4 32 -2.5 27.6
00:25 1018 30.06 847 25.01 14.5 58.2 30 -2.7 27.1
00:30 1018 30.06 847 25.01 14.8 58.6 30 -2.7 27.1
00:35 1018 30.06 847 25.01 14.8 58.7 29 -2.8 27
00:40 1018 30.06 847 25.01 14.8 58.7 30 -2.6 27.3
00:45 1018 30.06 847 25.01 14.9 58.9 30 -2.6 27.4
00:50 1018 30.06 847 25.01 14.7 58.5 30 -2.4 27.7
00:55 1018 30.06 847 25.01 14.6 58.3 30 -2.7 27.2
01:00 1018 30.06 847 25.01 14.6 58.3 30 -2.6 27.3
01:05 1018 30.06 847 25.01 14.4 58 30 -2.8 27
01:10 1018 30.06 847 25.01 14.3 57.8 31 -2.6 27.3
01:15 1018 30.06 847 25.01 14.4 57.9 31 -2.7 27.2
01:20 1018 30.06 847 25.01 14.4 57.8 31 -2.5 27.4
01:25 1018 30.06 847 25.01 14.3 57.7 31 -2.5 27.4
01:30 1018 30.06 847 25.01 14.2 57.5 31 -2.5 27.4
01:35 1018 30.06 847 25.01 14.2 57.5 30 -3.2 26.2
01:40 1018 30.06 847 25.01 14.6 58.2 29 -3 26.6
01:45 1018 30.06 847 25.01 14.4 58 31 -2.5 27.5
01:50 1018 30.06 847 25.01 13.9 57 31 -2.7 27.2
01:55 1018 30.06 847 25.01 13.8 56.8 32 -2.5 27.5
02:00 1018 30.06 847 25.01 13.9 57 32 -2.6 27.3
02:05 1018 30.06 847 25.01 13.9 56.9 31 -2.9 26.7
02:10 1018 30.06 847 25.01 14.1 57.3 30 -3.1 26.4
02:15 1018 30.06 847 25.01 14.3 57.7 32 -2.3 27.9
02:20 1018 30.06 847 25.01 13.7 56.6 34 -1.9 28.6
02:25 1018 30.06 847 25.01 13.1 55.5 32 -3 26.6
02:30 1018 30.06 847 25.01 13.4 56.1 32 -3.1 26.4
02:35 1018 30.06 847 25.01 13.6 56.5 32 -2.8 26.9
02:40 1018 30.06 847 25.01 13.5 56.4 32 -2.7 27.2
02:45 1018 30.06 847 25.01 13.3 55.9 34 -2.3 27.9
02:50 1018 30.06 847 25.01 13 55.4 33 -2.9 26.7
02:55 1018 30.06 847 25.01 13.3 55.9 32 -3.1 26.5
03:00 1018 30.06 847 25.01 13.8 56.9 31 -3 26.5
03:05 1018 30.06 847 25.01 13.7 56.7 32 -2.5 27.5
03:10 1018 30.06 847 25.01 13.4 56.1 31 -3.5 25.7
03:15 1018 30.06 847 25.01 13.4 56.1 32 -2.7 27.1
03:20 1018 30.06 847 25.01 13 55.3 35 -2.2 28.1
03:25 1018 30.06 847 25.01 12.3 54.1 38 -1.6 29.1
03:30 1018 30.06 847 25.01 11.6 52.8 38 -2.1 28.3
03:35 1018 30.06 847 25.01 11.6 52.9 37 -2.7 27.2
03:40 1018 30.06 847 25.01 11.9 53.4 36 -2.6 27.4
03:45 1018 30.06 847 25.01 11.7 53.1 39 -1.7 28.9
03:50 1018 30.06 847 25.01 11.5 52.6 36 -2.9 26.8
03:55 1018 30.06 847 25.01 11.7 53.1 36 -2.7 27.1
04:00 1018 30.06 847 25.01 11.7 53.1 36 -3 26.6
04:05 1018 30.06 847 25.01 12.2 54 37 -2.1 28.2
04:10 1018 30.06 847 25.01 11.6 52.8 38 -2.1 28.3
04:15 1018 30.06 847 25.01 11.2 52.2 40 -1.9 28.6
04:20 1018 30.06 847 25.01 10.8 51.5 42 -1.4 29.5
04:25 1018 30.06 847 25.01 10.3 50.6 43 -1.6 29.1
04:30 1018 30.06 847 25.01 10.2 50.4 44 -1.6 29.2
04:35 1018 30.06 847 25.01 10.1 50.1 45 -1.3 29.6
04:40 1018 30.06 847 25.01 9.9 49.7 44 -1.9 28.6
04:45 1018 30.06 847 25.01 10.1 50.1 42 -2.1 28.3
04:50 1018 30.06 847 25.01 10.3 50.6 42 -2 28.4
04:55 1018 30.06 847 25.01 10.2 50.4 43 -1.8 28.8
05:00 1018 30.06 847 25.01 10.2 50.4 42 -2.1 28.2
05:05 1018 30.06 847 25.01 10.4 50.7 42 -2.1 28.3
05:10 1018 30.06 847 25.01 10.2 50.4 43 -1.9 28.6
05:15 1017 30.03 847 25.01 9.9 49.9 44 -1.7 28.9
05:20 1017 30.03 847 25.01 9.7 49.4 45 -1.6 29.2
05:25 1018 30.06 847 25.01 9.6 49.3 45 -1.9 28.6
05:30 1018 30.06 847 25.01 9.7 49.4 44 -2 28.4
05:35 1018 30.06 847 25.01 9.7 49.5 45 -1.7 28.9
05:40 1017 30.03 847 25.01 9.7 49.5 43 -2.1 28.3
05:45 1017 30.03 847 25.01 10.1 50.2 42 -2.2 28.1
05:50 1017 30.03 847 25.01 10.2 50.4 42 -1.9 28.6
05:55 1017 30.03 847 25.01 10.1 50.1 44 -1.6 29.1
06:00 1017 30.03 847 25.01 9.4 48.9 49 -0.8 30.5
06:05 1017 30.03 847 25.01 8.8 47.8 47 -1.8 28.7
06:10 1017 30.03 847 25.01 9 48.2 47 -1.7 29
06:15 1017 30.03 847 25.01 9 48.2 46 -2 28.5
06:20 1017 30.03 847 25.01 9.2 48.6 44 -2.3 27.8
06:25 1017 30.03 847 25.01 9.7 49.4 42 -2.6 27.2
06:30 1017 30.03 847 25.01 10.3 50.6 36 -3.9 24.9
06:35 1017 30.03 847 25.01 10.8 51.4 38 -2.9 26.7
06:40 1017 30.03 847 25.01 10.9 51.5 35 -3.8 25.1
06:45 1017 30.03 847 25.01 11.1 51.9 36 -3.4 25.9
06:50 1017 30.03 847 25.01 10.7 51.2 37 -3.4 25.9
06:55 1017 30.03 847 25.01 10.6 51.2 39 -2.8 26.9
07:00 1017 30.03 847 25.01 10.3 50.6 41 -2.2 28
07:05 1017 30.03 847 25.01 10.1 50.2 44 -1.6 29
07:10 1017 30.03 847 25.01 9.6 49.3 43 -2.2 28
07:15 1017 30.03 847 25.01 9.8 49.6 43 -2.3 27.9
07:20 1017 30.03 847 25.01 10.1 50.2 40 -3 26.5
07:25 1017 30.03 847 25.01 10.2 50.4 38 -3.5 25.8
07:30 1017 30.03 846 24.98 10.5 51 40 -2.4 27.6
07:35 1017 30.03 846 24.98 10.6 51 35 -4.1 24.6
07:40 1017 30.03 847 25.01 11 51.8 35 -3.8 25.1
07:45 1017 30.03 847 25.01 11 51.7 36 -3.6 25.5
07:50 1017 30.03 846 24.98 11.1 52.1 40 -1.8 28.8
07:55 1017 30.03 846 24.98 10.3 50.5 42 -1.9 28.5
08:00 1017 30.03 846 24.98 10.2 50.3 41 -2.5 27.6
08:05 1017 30.03 846 24.98 10.6 51 41 -2.2 28
08:10 1017 30.03 846 24.98 10.7 51.3 41 -1.9 28.5
08:15 1017 30.03 846 24.98 10.6 51.2 41 -2.1 28.2
08:20 1017 30.03 846 24.98 10.7 51.3 42 -1.7 28.9
08:25 1017 30.03 846 24.98 10.7 51.2 43 -1.2 29.8
08:30 1017 30.03 846 24.98 10.7 51.3 44 -1 30.2
08:35 1017 30.03 846 24.98 10.9 51.6 39 -2.5 27.5
08:40 1017 30.03 846 24.98 11.3 52.4 38 -2.6 27.3
08:45 1017 30.03 846 24.98 11.6 52.9 42 -0.8 30.5
08:50 1017 30.03 846 24.98 11.9 53.4 40 -1.1 29.9
08:55 1017 30.03 846 24.98 12.3 54.1 40 -0.7 30.7
09:00 1017 30.03 846 24.98 12.6 54.6 41 -0.2 31.7
09:05 1017 30.03 846 24.98 12.9 55.2 39 -0.6 31
09:10 1017 30.03 846 24.98 13.3 55.9 36 -1.5 29.3
09:15 1017 30.03 846 24.98 14 57.2 36 -0.9 30.4
09:20 1017 30.03 846 24.98 14.6 58.2 33 -1.3 29.7
09:25 1017 30.03 846 24.98 15.3 59.5 31 -1.7 28.9
09:30 1017 30.03 847 25.01 15.9 60.6 31 -1.1 30
09:35 1017 30.03 847 25.01 16.5 61.7 30 -1.2 29.8
09:40 1017 30.03 847 25.01 17 62.5 28 -1.4 29.4
09:45 1017 30.03 847 25.01 17.2 62.9 28 -1.2 29.8
09:50 1017 30.03 846 24.98 17.6 63.7 30 -0.2 31.6
09:55 1017 30.03 846 24.98 17.9 64.1 29 -0.4 31.3
10:00 1017 30.03 846 24.98 18.2 64.7 28 -0.7 30.8
10:05 1017 30.03 846 24.98 18.6 65.4 27 -0.6 30.9
10:10 1017 30.03 846 24.98 19.1 66.3 26 -0.9 30.4
10:15 1017 30.03 846 24.98 19.5 67.1 26 -0.5 31.1
10:20 1017 30.03 846 24.98 19.4 66.9 27 -0.1 31.8
10:25 1017 30.03 846 24.98 19.3 66.7 26 -0.7 30.8
10:30 1017 30.03 846 24.98 19.6 67.3 26 -0.4 31.2
10:35 1017 30.03 846 24.98 20 67.9 26 -0 32
10:40 1017 30.03 846 24.98 20.6 69 24 -0.5 31.2
10:45 1017 30.03 846 24.98 21 69.7 24 -0.3 31.5
10:50 1017 30.03 846 24.98 20.8 69.4 25 0.3 32.5
10:55 1017 30.03 846 24.98 20.9 69.6 24 -0.2 31.7
11:00 1017 30.03 846 24.98 20.3 68.5 28 1.4 34.6
11:05 1017 30.03 846 24.98 19.9 67.9 29 1.6 34.8
11:10 1017 30.03 846 24.98 20 68.1 27 0.7 33.2
11:15 1017 30.03 846 24.98 19.8 67.6 26 -0.3 31.4
11:20 1017 30.03 846 24.98 19.9 67.8 25 -0.5 31.1
11:25 1017 30.03 846 24.98 20 68.1 23 -1.4 29.6
11:30 1017 30.03 846 24.98 20.5 68.9 24 -0.5 31.1
11:35 1017 30.03 846 24.98 20.6 69.2 23 -1.1 30
11:40 1017 30.03 846 24.98 21 69.7 22 -1.6 29.2
11:45 1017 30.03 846 24.98 21.4 70.4 21 -1.8 28.7
11:50 1017 30.03 846 24.98 21.1 69.9 21 -1.8 28.7
11:55 1017 30.03 846 24.98 21.4 70.5 19 -2.7 27.1
12:00 1017 30.03 846 24.98 21.7 71.1 19 -2.9 26.8
12:05 1017 30.03 846 24.98 21.6 70.8 19 -2.8 26.9
12:10 1017 30.03 846 24.98 22.1 71.7 18 -3 26.7
12:15 1017 30.03 846 24.98 22 71.5 19 -2.4 27.6
12:20 1017 30.03 846 24.98 22.6 72.6 17 -3.4 25.8
12:25 1017 30.03 846 24.98 22.6 72.7 17 -3.6 25.5
12:30 1017 30.03 846 24.98 22.9 73.3 17 -3.1 26.3
12:35 1017 30.03 846 24.98 22.9 73.2 17 -2.9 26.8
12:40 1017 30.03 846 24.98 23 73.4 17 -3.5 25.7
12:45 1017 30.03 846 24.98 22.6 72.6 17 -3.4 25.9
12:50 1016 30 846 24.98 22.9 73.2 17 -3.2 26.2
12:55 1016 30 846 24.98 23.8 74.8 15 -4.1 24.6
13:00 1016 30 846 24.98 24 75.2 15 -3.8 25.2
13:05 1016 30 845 24.95 24.8 76.6 15 -3.4 25.8
13:10 1016 30 845 24.95 24.9 76.7 15 -3.2 26.2
13:15 1016 30 845 24.95 24.2 75.6 17 -2.4 27.7
13:20 1016 30 845 24.95 24 75.2 15 -3.8 25.2
13:25 1016 30 845 24.95 24.5 76.1 16 -2.8 26.9
13:30 1016 30 845 24.95 24.3 75.8 16 -2.6 27.4
13:35 1016 30 845 24.95 23.7 74.7 17 -2.3 27.8
13:40 1016 30 845 24.95 23.3 74 18 -2.5 27.5
13:45 1016 30 845 24.95 23.1 73.6 18 -2.5 27.5
13:50 1016 30 845 24.95 23.1 73.5 17 -2.8 27
13:55 1015 29.97 845 24.95 24.2 75.5 16 -3 26.6
14:00 1015 29.97 845 24.95 25.3 77.5 15 -3 26.6
14:05 1015 29.97 845 24.95 25.4 77.8 15 -2.9 26.7
14:10 1015 29.97 845 24.95 25.7 78.2 15 -2.9 26.8
14:15 1015 29.97 844 24.92 25.9 78.6 15 -2.8 27
14:20 1015 29.97 844 24.92 26.1 79 14 -3 26.7
14:25 1015 29.97 844 24.92 26.7 80 14 -2.9 26.8
14:30 1015 29.97 844 24.92 26.6 79.9 14 -2.8 27
14:35 1015 29.97 844 24.92 27.1 80.7 14 -2.2 28.1
14:40 1015 29.97 844 24.92 26.6 79.8 15 -2.2 28.1
14:45 1015 29.97 844 24.92 26 78.9 17 -1 30.2
14:50 1015 29.97 844 24.92 26.2 79.1 14 -2.8 27
14:55 1015 29.97 844 24.92 25.8 78.5 16 -2 28.4
15:00 1015 29.97 844 24.92 26.3 79.4 15 -2.1 28.2
15:05 1015 29.97 844 24.92 26.4 79.5 14 -2.7 27.1
15:10 1015 29.97 844 24.92 26.1 78.9 15 -1.9 28.6
15:15 1015 29.97 844 24.92 25.8 78.5 14 -3.3 26.1
15:20 1014 29.94 844 24.92 26.5 79.7 14 -2.9 26.7
15:25 1014 29.94 844 24.92 26.5 79.7 15 -2 28.4
15:30 1014 29.94 843 24.89 26.5 79.6 15 -2.1 28.2
15:35 1014 29.94 843 24.89 26 78.8 14 -3 26.6
15:40 1014 29.94 843 24.89 26.6 79.9 15 -2.2 28
15:45 1014 29.94 843 24.89 26.9 80.4 14 -2.9 26.9
15:50 1014 29.94 843 24.89 27 80.5 14 -3 26.6
15:55 1014 29.94 843 24.89 26.7 80.1 14 -2.4 27.6
16:00 1014 29.94 843 24.89 26.8 80.2 14 -2.8 27
16:05 1014 29.94 843 24.89 26.5 79.6 13 -3.5 25.8
16:10 1014 29.94 843 24.89 26.4 79.5 15 -2.3 27.9
16:15 1014 29.94 843 24.89 26.4 79.6 14 -2.9 26.7
16:20 1014 29.94 843 24.89 25.7 78.3 15 -2.6 27.3
16:25 1014 29.94 843 24.89 26.4 79.5 13 -3.7 25.4
16:30 1014 29.94 843 24.89 26.7 80 14 -3 26.7
16:35 1014 29.94 843 24.89 27 80.6 14 -2.9 26.8
16:40 1014 29.94 843 24.89 26.9 80.4 13 -3.3 26
16:45 1014 29.94 843 24.89 27.1 80.9 13 -3.2 26.3
16:50 1014 29.94 843 24.89 26.9 80.5 14 -2.8 27
16:55 1014 29.94 843 24.89 27 80.6 13 -3.1 26.3
17:00 1014 29.94 843 24.89 26.9 80.5 14 -2.7 27.2
17:05 1014 29.94 843 24.89 26.7 80.1 14 -2.3 27.8
17:10 1014 29.94 843 24.89 26.2 79.1 15 -2.5 27.5
17:15 1014 29.94 843 24.89 26.2 79.1 15 -2 28.4
17:20 1014 29.94 843 24.89 25.8 78.5 21 2 35.7
17:25 1014 29.94 843 24.89 25.3 77.5 22 2.5 36.5
17:30 1014 29.94 843 24.89 24.8 76.7 24 3.1 37.5
17:35 1014 29.94 843 24.89 24.4 75.9 24 3 37.5
17:40 1014 29.94 844 24.92 23.8 74.8 27 3.8 38.9
17:45 1014 29.94 844 24.92 23.1 73.6 29 4.4 39.9
17:50 1015 29.97 844 24.92 22.4 72.3 31 4.6 40.2
17:55 1015 29.97 844 24.92 21.7 71 32 4.3 39.8
18:00 1015 29.97 844 24.92 21 69.7 33 4.3 39.8
18:05 1015 29.97 844 24.92 20.6 69 34 4.4 40
18:10 1015 29.97 845 24.95 20.2 68.4 38 5.8 42.4
18:15 1016 30 845 24.95 20 68.1 35 4.4 40
18:20 1016 30 845 24.95 19.9 67.7 37 4.8 40.6
18:25 1016 30 845 24.95 19.7 67.4 37 4.8 40.7
18:30 1016 30 846 24.98 19.4 67 39 5.1 41.2
18:35 1017 30.03 846 24.98 19.2 66.5 40 5.2 41.4
18:40 1017 30.03 846 24.98 18.9 66.1 40 5.3 41.5
18:45 1017 30.03 846 24.98 18.6 65.4 42 5.4 41.8
18:50 1017 30.03 846 24.98 18.2 64.7 43 5.4 41.8
18:55 1017 30.03 846 24.98 17.8 64.1 44 5.5 41.9
19:00 1017 30.03 847 25.01 17.7 63.8 44 5.4 41.8
19:05 1018 30.06 847 25.01 17.4 63.3 46 5.8 42.4
19:10 1018 30.06 847 25.01 17.1 62.7 47 5.6 42.2
19:15 1018 30.06 847 25.01 16.3 61.3 53 6.7 44
19:20 1018 30.06 847 25.01 15.6 60 54 6.4 43.6
19:25 1018 30.06 847 25.01 15 59 55 6.2 43.1
19:30 1018 30.06 847 25.01 14.5 58.1 57 6.3 43.3
19:35 1018 30.06 848 25.04 14.1 57.3 58 6 42.8
19:40 1018 30.06 848 25.04 13.7 56.7 59 5.9 42.7
19:45 1019 30.09 848 25.04 13.4 56.1 59 5.7 42.3
19:50 1019 30.09 848 25.04 13.2 55.8 60 5.6 42.1
19:55 1019 30.09 848 25.04 13.1 55.6 59 5.5 41.8
20:00 1019 30.09 848 25.04 13.1 55.5 60 5.5 42
20:05 1019 30.09 848 25.04 13 55.4 60 5.4 41.7
20:10 1019 30.09 848 25.04 12.8 55.1 59 5.2 41.3
20:15 1019 30.09 848 25.04 12.7 54.9 61 5.4 41.7
20:20 1019 30.09 848 25.04 12.5 54.4 61 5.3 41.5
20:25 1019 30.09 849 25.07 12.3 54.1 63 5.4 41.8
20:30 1020 30.12 849 25.07 12.1 53.8 64 5.6 42.1
20:35 1020 30.12 849 25.07 11.8 53.3 64 5.3 41.5
20:40 1020 30.12 849 25.07 11.6 52.9 65 5.3 41.6
20:45 1020 30.12 849 25.07 11.4 52.6 64 5 41
20:50 1020 30.12 849 25.07 11.4 52.5 64 5 40.9
20:55 1020 30.12 850 25.1 11.3 52.3 65 5.1 41.1
21:00 1020 30.12 850 25.1 11 51.8 66 4.9 40.7
21:05 1021 30.15 850 25.1 10.8 51.4 66 4.7 40.5
21:10 1021 30.15 850 25.1 10.7 51.3 66 4.6 40.3
21:15 1021 30.15 850 25.1 10.6 51.1 66 4.5 40.1
21:20 1021 30.15 850 25.1 10.4 50.8 66 4.4 40
21:25 1021 30.15 850 25.1 10.3 50.5 67 4.5 40
21:30 1021 30.15 850 25.1 10 50.1 67 4.3 39.8
21:35 1021 30.15 850 25.1 10 49.9 68 4.3 39.8
21:40 1021 30.15 851 25.13 9.8 49.7 68 4.2 39.5
21:45 1021 30.15 851 25.13 9.8 49.6 68 4.2 39.5
21:50 1021 30.15 851 25.13 9.6 49.2 69 4.1 39.4
21:55 1022 30.18 851 25.13 9.6 49.4 67 3.8 38.9
22:00 1022 30.18 851 25.13 9.7 49.5 67 3.9 39.1
22:05 1022 30.18 851 25.13 9.7 49.5 67 4 39.2
22:10 1022 30.18 851 25.13 9.7 49.5 68 4 39.3
22:15 1022 30.18 851 25.13 9.6 49.2 69 4.1 39.4
22:20 1022 30.18 851 25.13 9.5 49.2 68 3.9 38.9
22:25 1022 30.18 851 25.13 9.5 49 68 3.8 38.8
22:30 1022 30.18 851 25.13 9.4 48.9 67 3.7 38.6
22:35 1022 30.18 851 25.13 9 48.3 70 4 39.2
22:40 1022 30.18 851 25.13 8.7 47.7 71 3.8 38.9
22:45 1022 30.18 851 25.13 8.5 47.3 72 3.8 38.8
22:50 1022 30.18 851 25.13 8.2 46.8 73 3.7 38.6
22:55 1022 30.18 851 25.13 8 46.4 74 3.6 38.5
23:00 1022 30.18 851 25.13 7.9 46.2 74 3.5 38.2
23:05 1022 30.18 851 25.13 7.7 45.8 75 3.5 38.3
23:10 1022 30.18 851 25.13 7.6 45.6 74 3.2 37.8
23:15 1022 30.18 852 25.16 7.5 45.5 74 3.2 37.8
23:20 1022 30.18 852 25.16 7.5 45.5 73 3 37.3
23:25 1022 30.18 852 25.16 7.5 45.5 73 3 37.5
23:30 1023 30.21 852 25.16 7.4 45.4 73 2.9 37.3
23:35 1023 30.21 852 25.16 7.4 45.2 73 2.8 37
23:40 1023 30.21 852 25.16 7.3 45.1 74 2.9 37.2
23:45 1023 30.21 852 25.16 7.2 45 73 2.8 37
23:50 1023 30.21 852 25.16 7.3 45.1 74 2.9 37.3
23:55 1023 30.21 852 25.16 7.3 45.1 73 2.8 37
24:00 1023 30.21 852 25.16 7.2 44.9 73 2.7 36.8